sensor_id;sensor_type;location;lat;lon;timestamp;pressure;altitude;pressure_sealevel;temperature;humidity
79729;BME280;69218;52.132;5.418;2023-07-30T00:00:44;100980.44;;;15.61;75.57
79729;BME280;69218;52.132;5.418;2023-07-30T00:03:10;100980.75;;;15.58;75.79
79729;BME280;69218;52.132;5.418;2023-07-30T00:05:37;100976.56;;;15.55;76.02
79729;BME280;69218;52.132;5.418;2023-07-30T00:08:04;100967.97;;;15.53;76.16
79729;BME280;69218;52.132;5.418;2023-07-30T00:10:30;100975.22;;;15.51;76.39
79729;BME280;69218;52.132;5.418;2023-07-30T00:12:56;100979.81;;;15.49;76.27
79729;BME280;69218;52.132;5.418;2023-07-30T00:15:23;100986.25;;;15.47;76.49
79729;BME280;69218;52.132;5.418;2023-07-30T00:17:49;100989.19;;;15.44;76.74
79729;BME280;69218;52.132;5.418;2023-07-30T00:20:16;100982.38;;;15.41;76.62
79729;BME280;69218;52.132;5.418;2023-07-30T00:22:43;100994.09;;;15.38;77.10
79729;BME280;69218;52.132;5.418;2023-07-30T00:25:09;100990.78;;;15.36;77.26
79729;BME280;69218;52.132;5.418;2023-07-30T00:27:36;100993.53;;;15.35;77.21
79729;BME280;69218;52.132;5.418;2023-07-30T00:30:02;100990.38;;;15.31;77.50
79729;BME280;69218;52.132;5.418;2023-07-30T00:32:29;100991.22;;;15.32;76.76
79729;BME280;69218;52.132;5.418;2023-07-30T00:34:55;100990.66;;;15.28;77.51
79729;BME280;69218;52.132;5.418;2023-07-30T00:37:22;100994.13;;;15.29;77.40
79729;BME280;69218;52.132;5.418;2023-07-30T00:39:49;100993.47;;;15.27;77.49
79729;BME280;69218;52.132;5.418;2023-07-30T00:42:15;100988.34;;;15.25;77.31
79729;BME280;69218;52.132;5.418;2023-07-30T00:44:41;100989.31;;;15.24;77.94
79729;BME280;69218;52.132;5.418;2023-07-30T00:47:08;100993.94;;;15.22;77.86
79729;BME280;69218;52.132;5.418;2023-07-30T00:49:35;100985.28;;;15.20;78.14
79729;BME280;69218;52.132;5.418;2023-07-30T00:52:03;100990.72;;;15.19;78.08
79729;BME280;69218;52.132;5.418;2023-07-30T00:54:30;100984.63;;;15.18;77.88
79729;BME280;69218;52.132;5.418;2023-07-30T00:56:56;100989.91;;;15.18;77.98
79729;BME280;69218;52.132;5.418;2023-07-30T00:59:23;100983.13;;;15.16;78.15
79729;BME280;69218;52.132;5.418;2023-07-30T01:01:51;100986.72;;;15.15;78.83
79729;BME280;69218;52.132;5.418;2023-07-30T01:04:18;100991.16;;;15.14;79.00
79729;BME280;69218;52.132;5.418;2023-07-30T01:06:45;100987.84;;;15.12;78.97
79729;BME280;69218;52.132;5.418;2023-07-30T01:09:12;100994.94;;;15.11;79.35
79729;BME280;69218;52.132;5.418;2023-07-30T01:11:39;100996.09;;;15.09;79.71
79729;BME280;69218;52.132;5.418;2023-07-30T01:14:08;101006.09;;;15.05;79.67
79729;BME280;69218;52.132;5.418;2023-07-30T01:16:36;101000.81;;;15.05;79.64
79729;BME280;69218;52.132;5.418;2023-07-30T01:19:02;100999.31;;;15.03;80.17
79729;BME280;69218;52.132;5.418;2023-07-30T01:21:32;101008.22;;;15.02;80.41
79729;BME280;69218;52.132;5.418;2023-07-30T01:23:59;101007.38;;;15.01;79.69
79729;BME280;69218;52.132;5.418;2023-07-30T01:26:30;101003.88;;;15.01;80.53
79729;BME280;69218;52.132;5.418;2023-07-30T01:29:01;101007.50;;;15.00;80.64
79729;BME280;69218;52.132;5.418;2023-07-30T01:31:30;101006.97;;;14.96;81.12
79729;BME280;69218;52.132;5.418;2023-07-30T01:33:59;101012.25;;;14.96;80.87
79729;BME280;69218;52.132;5.418;2023-07-30T01:36:28;101022.00;;;14.96;81.07
79729;BME280;69218;52.132;5.418;2023-07-30T01:38:56;101021.00;;;14.97;82.04
79729;BME280;69218;52.132;5.418;2023-07-30T01:41:23;101019.19;;;14.97;81.71
79729;BME280;69218;52.132;5.418;2023-07-30T01:43:50;101013.50;;;15.02;81.32
79729;BME280;69218;52.132;5.418;2023-07-30T01:46:17;101009.88;;;15.03;81.22
79729;BME280;69218;52.132;5.418;2023-07-30T01:48:44;101016.81;;;15.04;81.75
79729;BME280;69218;52.132;5.418;2023-07-30T01:51:11;101010.38;;;15.06;81.79
79729;BME280;69218;52.132;5.418;2023-07-30T01:53:41;101006.66;;;15.09;81.34
79729;BME280;69218;52.132;5.418;2023-07-30T01:56:07;101009.97;;;15.11;81.77
79729;BME280;69218;52.132;5.418;2023-07-30T01:58:34;101011.63;;;15.12;81.78
79729;BME280;69218;52.132;5.418;2023-07-30T02:01:00;101016.75;;;15.14;81.46
79729;BME280;69218;52.132;5.418;2023-07-30T02:03:27;101010.47;;;15.15;81.51
79729;BME280;69218;52.132;5.418;2023-07-30T02:05:54;101017.44;;;15.16;82.28
79729;BME280;69218;52.132;5.418;2023-07-30T02:08:20;101016.47;;;15.17;82.00
79729;BME280;69218;52.132;5.418;2023-07-30T02:10:55;101013.00;;;15.16;82.42
79729;BME280;69218;52.132;5.418;2023-07-30T02:13:21;101022.56;;;15.17;82.35
79729;BME280;69218;52.132;5.418;2023-07-30T02:15:48;101014.66;;;15.17;82.46
79729;BME280;69218;52.132;5.418;2023-07-30T02:18:14;101016.31;;;15.18;82.30
79729;BME280;69218;52.132;5.418;2023-07-30T02:20:41;101016.00;;;15.21;82.26
79729;BME280;69218;52.132;5.418;2023-07-30T02:23:08;101014.19;;;15.22;82.23
79729;BME280;69218;52.132;5.418;2023-07-30T02:25:35;101020.34;;;15.22;82.37
79729;BME280;69218;52.132;5.418;2023-07-30T02:28:01;101013.25;;;15.23;82.87
79729;BME280;69218;52.132;5.418;2023-07-30T02:30:28;101008.78;;;15.23;82.58
79729;BME280;69218;52.132;5.418;2023-07-30T02:32:54;101012.41;;;15.22;82.39
79729;BME280;69218;52.132;5.418;2023-07-30T02:35:21;101011.56;;;15.22;82.61
79729;BME280;69218;52.132;5.418;2023-07-30T02:37:47;101008.91;;;15.22;82.71
79729;BME280;69218;52.132;5.418;2023-07-30T02:40:15;101011.56;;;15.22;82.96
79729;BME280;69218;52.132;5.418;2023-07-30T02:42:41;101004.75;;;15.19;83.22
79729;BME280;69218;52.132;5.418;2023-07-30T02:45:08;100997.81;;;15.18;83.13
79729;BME280;69218;52.132;5.418;2023-07-30T02:47:34;101008.38;;;15.18;83.59
79729;BME280;69218;52.132;5.418;2023-07-30T02:50:04;101004.09;;;15.17;83.86
79729;BME280;69218;52.132;5.418;2023-07-30T02:52:32;101003.25;;;15.17;84.16
79729;BME280;69218;52.132;5.418;2023-07-30T02:54:58;101000.75;;;15.15;83.12
79729;BME280;69218;52.132;5.418;2023-07-30T02:57:25;101003.38;;;15.15;83.67
79729;BME280;69218;52.132;5.418;2023-07-30T02:59:51;101005.19;;;15.15;83.44
79729;BME280;69218;52.132;5.418;2023-07-30T03:02:18;101004.53;;;15.13;83.93
79729;BME280;69218;52.132;5.418;2023-07-30T03:04:45;101002.19;;;15.09;84.46
79729;BME280;69218;52.132;5.418;2023-07-30T03:07:11;101001.38;;;15.09;84.43
79729;BME280;69218;52.132;5.418;2023-07-30T03:09:38;101001.66;;;15.06;84.10
79729;BME280;69218;52.132;5.418;2023-07-30T03:12:05;101008.06;;;15.03;84.01
79729;BME280;69218;52.132;5.418;2023-07-30T03:14:31;101009.16;;;15.01;84.25
79729;BME280;69218;52.132;5.418;2023-07-30T03:16:58;101010.97;;;15.00;85.14
79729;BME280;69218;52.132;5.418;2023-07-30T03:19:24;101018.06;;;15.00;84.49
79729;BME280;69218;52.132;5.418;2023-07-30T03:21:51;101011.28;;;14.97;85.44
79729;BME280;69218;52.132;5.418;2023-07-30T03:24:17;101012.09;;;14.98;85.33
79729;BME280;69218;52.132;5.418;2023-07-30T03:26:44;101007.81;;;14.97;85.33
79729;BME280;69218;52.132;5.418;2023-07-30T03:29:10;101009.47;;;14.98;85.49
79729;BME280;69218;52.132;5.418;2023-07-30T03:31:37;101016.56;;;14.97;85.44
79729;BME280;69218;52.132;5.418;2023-07-30T03:34:03;101007.66;;;14.98;86.06
79729;BME280;69218;52.132;5.418;2023-07-30T03:36:30;101009.47;;;14.98;85.60
79729;BME280;69218;52.132;5.418;2023-07-30T03:38:56;101014.91;;;14.96;85.46
79729;BME280;69218;52.132;5.418;2023-07-30T03:41:23;101012.25;;;14.96;85.73
79729;BME280;69218;52.132;5.418;2023-07-30T03:43:50;101017.69;;;14.95;86.24
79729;BME280;69218;52.132;5.418;2023-07-30T03:46:16;101022.97;;;14.95;86.28
79729;BME280;69218;52.132;5.418;2023-07-30T03:48:43;101028.38;;;14.93;86.26
79729;BME280;69218;52.132;5.418;2023-07-30T03:51:09;101025.75;;;14.93;86.95
79729;BME280;69218;52.132;5.418;2023-07-30T03:53:36;101024.91;;;14.93;86.43
79729;BME280;69218;52.132;5.418;2023-07-30T03:56:03;101023.94;;;14.94;86.28
79729;BME280;69218;52.132;5.418;2023-07-30T03:58:29;101029.22;;;14.94;86.95
79729;BME280;69218;52.132;5.418;2023-07-30T04:00:57;101024.78;;;14.94;86.32
79729;BME280;69218;52.132;5.418;2023-07-30T04:03:23;101020.19;;;14.96;86.94
79729;BME280;69218;52.132;5.418;2023-07-30T04:05:50;101018.22;;;14.98;86.58
79729;BME280;69218;52.132;5.418;2023-07-30T04:08:16;101031.25;;;15.00;86.97
79729;BME280;69218;52.132;5.418;2023-07-30T04:10:43;101027.66;;;15.01;86.65
79729;BME280;69218;52.132;5.418;2023-07-30T04:13:10;101023.06;;;15.03;87.78
79729;BME280;69218;52.132;5.418;2023-07-30T04:15:36;101025.56;;;15.04;87.18
79729;BME280;69218;52.132;5.418;2023-07-30T04:18:03;101020.94;;;15.06;87.69
79729;BME280;69218;52.132;5.418;2023-07-30T04:20:29;101024.41;;;15.07;88.04
79729;BME280;69218;52.132;5.418;2023-07-30T04:22:56;101026.78;;;15.10;87.50
79729;BME280;69218;52.132;5.418;2023-07-30T04:25:23;101033.72;;;15.11;87.33
79729;BME280;69218;52.132;5.418;2023-07-30T04:27:49;101033.41;;;15.14;87.35
79729;BME280;69218;52.132;5.418;2023-07-30T04:30:16;101035.78;;;15.17;86.88
79729;BME280;69218;52.132;5.418;2023-07-30T04:32:42;101037.97;;;15.22;88.16
79729;BME280;69218;52.132;5.418;2023-07-30T04:35:09;101031.72;;;15.23;87.83
79729;BME280;69218;52.132;5.418;2023-07-30T04:37:35;101038.34;;;15.27;87.99
79729;BME280;69218;52.132;5.418;2023-07-30T04:40:02;101035.44;;;15.30;88.02
79729;BME280;69218;52.132;5.418;2023-07-30T04:42:29;101043.72;;;15.35;88.12
79729;BME280;69218;52.132;5.418;2023-07-30T04:44:56;101034.53;;;15.39;88.34
79729;BME280;69218;52.132;5.418;2023-07-30T04:47:22;101041.16;;;15.43;88.81
79729;BME280;69218;52.132;5.418;2023-07-30T04:49:49;101041.03;;;15.45;88.76
79729;BME280;69218;52.132;5.418;2023-07-30T04:52:15;101048.50;;;15.49;88.49
79729;BME280;69218;52.132;5.418;2023-07-30T04:54:42;101042.13;;;15.52;88.82
79729;BME280;69218;52.132;5.418;2023-07-30T04:57:08;101058.34;;;15.57;88.57
79729;BME280;69218;52.132;5.418;2023-07-30T04:59:35;101057.78;;;15.63;88.95
79729;BME280;69218;52.132;5.418;2023-07-30T05:02:01;101050.22;;;15.68;88.97
79729;BME280;69218;52.132;5.418;2023-07-30T05:04:28;101053.25;;;15.73;89.12
79729;BME280;69218;52.132;5.418;2023-07-30T05:06:54;101056.25;;;15.78;88.85
79729;BME280;69218;52.132;5.418;2023-07-30T05:09:21;101054.84;;;15.84;88.59
79729;BME280;69218;52.132;5.418;2023-07-30T05:11:48;101058.53;;;15.91;88.80
79729;BME280;69218;52.132;5.418;2023-07-30T05:14:14;101052.66;;;15.97;88.46
79729;BME280;69218;52.132;5.418;2023-07-30T05:16:41;101056.66;;;16.01;88.35
79729;BME280;69218;52.132;5.418;2023-07-30T05:19:07;101057.72;;;16.08;88.48
79729;BME280;69218;52.132;5.418;2023-07-30T05:21:34;101052.78;;;16.13;87.85
79729;BME280;69218;52.132;5.418;2023-07-30T05:24:01;101056.78;;;16.17;87.91
79729;BME280;69218;52.132;5.418;2023-07-30T05:26:28;101065.09;;;16.23;88.15
79729;BME280;69218;52.132;5.418;2023-07-30T05:28:55;101056.69;;;16.27;88.11
79729;BME280;69218;52.132;5.418;2023-07-30T05:31:21;101058.88;;;16.32;87.87
79729;BME280;69218;52.132;5.418;2023-07-30T05:33:48;101056.44;;;16.38;87.87
79729;BME280;69218;52.132;5.418;2023-07-30T05:36:15;101057.81;;;16.42;87.81
79729;BME280;69218;52.132;5.418;2023-07-30T05:38:44;101058.31;;;16.46;86.95
79729;BME280;69218;52.132;5.418;2023-07-30T05:41:11;101048.94;;;16.52;86.25
79729;BME280;69218;52.132;5.418;2023-07-30T05:43:37;101058.38;;;16.54;85.53
79729;BME280;69218;52.132;5.418;2023-07-30T05:46:04;101062.22;;;16.60;86.01
79729;BME280;69218;52.132;5.418;2023-07-30T05:48:30;101054.47;;;16.66;86.09
79729;BME280;69218;52.132;5.418;2023-07-30T05:50:57;101053.72;;;16.74;85.88
79729;BME280;69218;52.132;5.418;2023-07-30T05:53:23;101057.56;;;16.80;85.75
79729;BME280;69218;52.132;5.418;2023-07-30T05:55:50;101062.53;;;16.83;84.45
79729;BME280;69218;52.132;5.418;2023-07-30T05:58:16;101065.03;;;16.84;84.94
79729;BME280;69218;52.132;5.418;2023-07-30T06:00:43;101056.63;;;16.89;85.41
79729;BME280;69218;52.132;5.418;2023-07-30T06:03:10;101064.94;;;16.94;84.31
79729;BME280;69218;52.132;5.418;2023-07-30T06:05:41;101067.25;;;16.97;84.08
79729;BME280;69218;52.132;5.418;2023-07-30T06:08:08;101070.09;;;17.03;83.62
79729;BME280;69218;52.132;5.418;2023-07-30T06:10:36;101065.63;;;17.04;83.96
79729;BME280;69218;52.132;5.418;2023-07-30T06:13:06;101068.13;;;17.06;84.03
79729;BME280;69218;52.132;5.418;2023-07-30T06:15:33;101065.81;;;17.11;83.14
79729;BME280;69218;52.132;5.418;2023-07-30T06:18:03;101073.31;;;17.15;83.51
79729;BME280;69218;52.132;5.418;2023-07-30T06:20:30;101064.69;;;17.13;83.35
79729;BME280;69218;52.132;5.418;2023-07-30T06:22:57;101067.16;;;17.15;82.42
79729;BME280;69218;52.132;5.418;2023-07-30T06:25:23;101065.19;;;17.17;82.55
79729;BME280;69218;52.132;5.418;2023-07-30T06:27:50;101069.84;;;17.23;82.73
79729;BME280;69218;52.132;5.418;2023-07-30T06:30:17;101074.50;;;17.29;82.87
79729;BME280;69218;52.132;5.418;2023-07-30T06:32:43;101073.19;;;17.33;82.44
79729;BME280;69218;52.132;5.418;2023-07-30T06:35:10;101068.25;;;17.38;82.34
79729;BME280;69218;52.132;5.418;2023-07-30T06:37:37;101073.06;;;17.43;82.15
79729;BME280;69218;52.132;5.418;2023-07-30T06:40:04;101073.06;;;17.43;82.06
79729;BME280;69218;52.132;5.418;2023-07-30T06:42:32;101077.38;;;17.44;81.82
79729;BME280;69218;52.132;5.418;2023-07-30T06:44:59;101075.06;;;17.41;82.47
79729;BME280;69218;52.132;5.418;2023-07-30T06:47:26;101065.47;;;17.48;81.84
79729;BME280;69218;52.132;5.418;2023-07-30T06:49:52;101067.44;;;17.54;81.21
79729;BME280;69218;52.132;5.418;2023-07-30T06:52:19;101062.50;;;17.59;81.74
79729;BME280;69218;52.132;5.418;2023-07-30T06:54:46;101066.50;;;17.63;80.34
79729;BME280;69218;52.132;5.418;2023-07-30T06:57:13;101059.19;;;17.57;80.66
79729;BME280;69218;52.132;5.418;2023-07-30T06:59:39;101064.66;;;17.55;80.47
79729;BME280;69218;52.132;5.418;2023-07-30T07:02:06;101064.50;;;17.57;80.74
79729;BME280;69218;52.132;5.418;2023-07-30T07:04:32;101064.47;;;17.49;81.84
79729;BME280;69218;52.132;5.418;2023-07-30T07:06:59;101062.97;;;17.46;80.45
79729;BME280;69218;52.132;5.418;2023-07-30T07:09:27;101071.59;;;17.48;80.76
79729;BME280;69218;52.132;5.418;2023-07-30T07:11:54;101070.59;;;17.49;80.90
79729;BME280;69218;52.132;5.418;2023-07-30T07:14:20;101075.22;;;17.47;80.19
79729;BME280;69218;52.132;5.418;2023-07-30T07:16:47;101077.22;;;17.45;80.61
79729;BME280;69218;52.132;5.418;2023-07-30T07:19:15;101082.69;;;17.44;80.69
79729;BME280;69218;52.132;5.418;2023-07-30T07:21:41;101083.69;;;17.51;80.63
79729;BME280;69218;52.132;5.418;2023-07-30T07:24:08;101085.88;;;17.55;80.42
79729;BME280;69218;52.132;5.418;2023-07-30T07:26:35;101079.41;;;17.66;80.16
79729;BME280;69218;52.132;5.418;2023-07-30T07:29:03;101078.41;;;17.67;79.12
79729;BME280;69218;52.132;5.418;2023-07-30T07:31:29;101082.06;;;17.66;79.23
79729;BME280;69218;52.132;5.418;2023-07-30T07:33:56;101083.13;;;17.73;79.15
79729;BME280;69218;52.132;5.418;2023-07-30T07:36:22;101081.28;;;17.82;78.82
79729;BME280;69218;52.132;5.418;2023-07-30T07:38:49;101076.69;;;18.00;78.31
79729;BME280;69218;52.132;5.418;2023-07-30T07:41:16;101075.69;;;18.09;78.12
79729;BME280;69218;52.132;5.418;2023-07-30T07:43:43;101079.34;;;18.08;77.13
79729;BME280;69218;52.132;5.418;2023-07-30T07:46:10;101075.38;;;18.13;77.35
79729;BME280;69218;52.132;5.418;2023-07-30T07:48:43;101073.53;;;18.21;76.92
79729;BME280;69218;52.132;5.418;2023-07-30T07:51:11;101070.88;;;18.37;76.36
79729;BME280;69218;52.132;5.418;2023-07-30T07:53:38;101073.34;;;18.55;75.96
79729;BME280;69218;52.132;5.418;2023-07-30T07:56:05;101075.00;;;18.56;75.38
79729;BME280;69218;52.132;5.418;2023-07-30T07:58:32;101077.16;;;18.61;74.79
79729;BME280;69218;52.132;5.418;2023-07-30T08:00:59;101086.44;;;18.57;75.36
79729;BME280;69218;52.132;5.418;2023-07-30T08:03:26;101085.81;;;18.55;75.07
79729;BME280;69218;52.132;5.418;2023-07-30T08:05:53;101081.97;;;18.57;74.55
79729;BME280;69218;52.132;5.418;2023-07-30T08:08:20;101068.38;;;18.69;75.00
79729;BME280;69218;52.132;5.418;2023-07-30T08:10:47;101076.91;;;19.03;74.03
79729;BME280;69218;52.132;5.418;2023-07-30T08:13:14;101076.53;;;19.14;73.10
79729;BME280;69218;52.132;5.418;2023-07-30T08:15:40;101087.66;;;19.10;73.70
79729;BME280;69218;52.132;5.418;2023-07-30T08:18:07;101080.50;;;19.18;73.36
79729;BME280;69218;52.132;5.418;2023-07-30T08:20:33;101074.56;;;19.47;72.81
79729;BME280;69218;52.132;5.418;2023-07-30T08:23:00;101084.56;;;19.37;72.13
79729;BME280;69218;52.132;5.418;2023-07-30T08:25:26;101075.97;;;19.27;72.43
79729;BME280;69218;52.132;5.418;2023-07-30T08:27:53;101066.25;;;19.11;71.51
79729;BME280;69218;52.132;5.418;2023-07-30T08:30:19;101069.59;;;19.05;72.35
79729;BME280;69218;52.132;5.418;2023-07-30T08:32:46;101082.22;;;18.95;72.29
79729;BME280;69218;52.132;5.418;2023-07-30T08:35:13;101065.16;;;18.81;72.52
79729;BME280;69218;52.132;5.418;2023-07-30T08:37:39;101066.19;;;18.72;73.08
79729;BME280;69218;52.132;5.418;2023-07-30T08:40:06;101078.31;;;18.66;74.08
79729;BME280;69218;52.132;5.418;2023-07-30T08:42:33;101073.84;;;18.75;74.74
79729;BME280;69218;52.132;5.418;2023-07-30T08:44:59;101069.97;;;18.86;72.36
79729;BME280;69218;52.132;5.418;2023-07-30T08:47:26;101084.25;;;18.93;72.28
79729;BME280;69218;52.132;5.418;2023-07-30T08:49:53;101080.22;;;19.05;72.22
79729;BME280;69218;52.132;5.418;2023-07-30T08:52:21;101067.88;;;19.20;70.80
79729;BME280;69218;52.132;5.418;2023-07-30T08:54:49;101068.97;;;19.34;70.52
79729;BME280;69218;52.132;5.418;2023-07-30T08:57:19;101085.53;;;19.44;69.01
79729;BME280;69218;52.132;5.418;2023-07-30T08:59:50;101085.94;;;19.64;68.79
79729;BME280;69218;52.132;5.418;2023-07-30T09:02:38;101078.78;;;19.96;69.34
79729;BME280;69218;52.132;5.418;2023-07-30T09:05:05;101079.34;;;20.06;67.77
79729;BME280;69218;52.132;5.418;2023-07-30T09:07:32;101086.91;;;19.94;67.93
79729;BME280;69218;52.132;5.418;2023-07-30T09:09:59;101084.09;;;19.96;68.26
79729;BME280;69218;52.132;5.418;2023-07-30T09:12:29;101090.06;;;19.98;68.38
79729;BME280;69218;52.132;5.418;2023-07-30T09:14:57;101084.31;;;19.86;68.11
79729;BME280;69218;52.132;5.418;2023-07-30T09:17:24;101086.97;;;19.86;68.52
79729;BME280;69218;52.132;5.418;2023-07-30T09:19:52;101093.34;;;20.00;68.40
79729;BME280;69218;52.132;5.418;2023-07-30T09:22:29;101092.84;;;20.05;68.77
79729;BME280;69218;52.132;5.418;2023-07-30T09:24:57;101091.53;;;20.00;68.44
79729;BME280;69218;52.132;5.418;2023-07-30T09:27:25;101097.66;;;20.01;68.38
79729;BME280;69218;52.132;5.418;2023-07-30T09:29:54;101103.84;;;20.01;70.43
79729;BME280;69218;52.132;5.418;2023-07-30T09:32:25;101106.84;;;19.98;69.29
79729;BME280;69218;52.132;5.418;2023-07-30T09:34:52;101109.38;;;19.92;68.51
79729;BME280;69218;52.132;5.418;2023-07-30T09:37:18;101098.09;;;19.90;67.39
79729;BME280;69218;52.132;5.418;2023-07-30T09:39:47;101111.22;;;19.91;67.72
79729;BME280;69218;52.132;5.418;2023-07-30T09:42:14;101113.00;;;19.99;66.82
79729;BME280;69218;52.132;5.418;2023-07-30T09:44:41;101119.16;;;19.99;66.23
79729;BME280;69218;52.132;5.418;2023-07-30T09:47:10;101121.91;;;20.29;67.25
79729;BME280;69218;52.132;5.418;2023-07-30T09:49:38;101120.56;;;20.56;66.34
79729;BME280;69218;52.132;5.418;2023-07-30T09:52:05;101125.91;;;20.71;64.66
79729;BME280;69218;52.132;5.418;2023-07-30T09:54:32;101118.25;;;20.53;64.73
79729;BME280;69218;52.132;5.418;2023-07-30T09:56:59;101125.63;;;20.51;66.20
79729;BME280;69218;52.132;5.418;2023-07-30T09:59:26;101134.69;;;20.56;64.51
79729;BME280;69218;52.132;5.418;2023-07-30T10:01:52;101122.03;;;20.59;63.90
79729;BME280;69218;52.132;5.418;2023-07-30T10:04:23;101141.19;;;20.92;64.14
79729;BME280;69218;52.132;5.418;2023-07-30T10:07:02;101139.19;;;21.08;63.82
79729;BME280;69218;52.132;5.418;2023-07-30T10:09:35;101139.41;;;21.36;63.50
79729;BME280;69218;52.132;5.418;2023-07-30T10:12:05;101140.25;;;21.73;61.55
79729;BME280;69218;52.132;5.418;2023-07-30T10:14:32;101129.25;;;21.83;57.25
79729;BME280;69218;52.132;5.418;2023-07-30T10:16:59;101138.47;;;21.80;58.75
79729;BME280;69218;52.132;5.418;2023-07-30T10:19:28;101138.69;;;22.00;58.86
79729;BME280;69218;52.132;5.418;2023-07-30T10:22:19;101145.25;;;22.19;58.06
79729;BME280;69218;52.132;5.418;2023-07-30T10:25:00;101138.13;;;22.26;56.27
79729;BME280;69218;52.132;5.418;2023-07-30T10:27:37;101149.91;;;22.32;56.67
79729;BME280;69218;52.132;5.418;2023-07-30T10:30:18;101167.22;;;22.14;57.04
79729;BME280;69218;52.132;5.418;2023-07-30T10:38:21;101151.94;;;22.08;57.85
79729;BME280;69218;52.132;5.418;2023-07-30T10:43:31;101148.13;;;22.17;56.10
79729;BME280;69218;52.132;5.418;2023-07-30T10:46:00;101144.41;;;21.97;56.49
79729;BME280;69218;52.132;5.418;2023-07-30T10:48:46;101154.09;;;21.83;55.30
79729;BME280;69218;52.132;5.418;2023-07-30T10:51:17;101156.19;;;21.66;56.61
79729;BME280;69218;52.132;5.418;2023-07-30T10:53:45;101163.63;;;22.07;54.29
79729;BME280;69218;52.132;5.418;2023-07-30T10:56:15;101170.38;;;22.46;54.86
79729;BME280;69218;52.132;5.418;2023-07-30T10:58:42;101154.06;;;22.84;51.03
79729;BME280;69218;52.132;5.418;2023-07-30T11:01:09;101156.13;;;23.16;52.80
79729;BME280;69218;52.132;5.418;2023-07-30T11:03:36;101149.72;;;23.52;53.36
79729;BME280;69218;52.132;5.418;2023-07-30T11:06:04;101161.34;;;23.72;53.23
79729;BME280;69218;52.132;5.418;2023-07-30T11:08:39;101174.03;;;24.05;49.77
79729;BME280;69218;52.132;5.418;2023-07-30T11:11:08;101153.41;;;24.05;46.88
79729;BME280;69218;52.132;5.418;2023-07-30T11:13:38;101153.78;;;23.82;48.26
79729;BME280;69218;52.132;5.418;2023-07-30T11:16:06;101156.72;;;23.53;48.14
79729;BME280;69218;52.132;5.418;2023-07-30T11:18:34;101160.28;;;23.25;49.66
79729;BME280;69218;52.132;5.418;2023-07-30T11:23:30;101169.19;;;22.98;52.39
79729;BME280;69218;52.132;5.418;2023-07-30T11:25:57;101171.25;;;23.02;50.49
79729;BME280;69218;52.132;5.418;2023-07-30T11:28:33;101178.22;;;22.97;51.08
79729;BME280;69218;52.132;5.418;2023-07-30T11:31:10;101180.09;;;23.03;53.13
79729;BME280;69218;52.132;5.418;2023-07-30T11:33:40;101187.81;;;23.13;52.82
79729;BME280;69218;52.132;5.418;2023-07-30T11:36:10;101178.34;;;23.17;53.14
79729;BME280;69218;52.132;5.418;2023-07-30T11:38:38;101196.00;;;23.11;50.69
79729;BME280;69218;52.132;5.418;2023-07-30T11:41:05;101197.22;;;23.43;51.47
79729;BME280;69218;52.132;5.418;2023-07-30T11:43:40;101184.38;;;23.67;51.01
79729;BME280;69218;52.132;5.418;2023-07-30T11:46:08;101189.19;;;23.78;52.15
79729;BME280;69218;52.132;5.418;2023-07-30T11:48:35;101188.00;;;23.94;49.61
79729;BME280;69218;52.132;5.418;2023-07-30T11:51:02;101191.13;;;24.04;47.92
79729;BME280;69218;52.132;5.418;2023-07-30T11:53:51;101186.63;;;24.18;49.74
79729;BME280;69218;52.132;5.418;2023-07-30T11:58:46;101197.50;;;24.09;50.73
79729;BME280;69218;52.132;5.418;2023-07-30T12:01:17;101190.03;;;23.85;47.64
79729;BME280;69218;52.132;5.418;2023-07-30T12:03:44;101197.41;;;23.70;48.81
79729;BME280;69218;52.132;5.418;2023-07-30T12:06:11;101197.66;;;23.88;51.57
79729;BME280;69218;52.132;5.418;2023-07-30T12:08:38;101189.28;;;24.24;51.28
79729;BME280;69218;52.132;5.418;2023-07-30T12:11:07;101205.94;;;24.00;50.33
79729;BME280;69218;52.132;5.418;2023-07-30T12:13:34;101210.88;;;23.55;50.41
79729;BME280;69218;52.132;5.418;2023-07-30T12:16:00;101209.13;;;23.34;49.81
79729;BME280;69218;52.132;5.418;2023-07-30T12:18:28;101217.66;;;23.16;51.13
79729;BME280;69218;52.132;5.418;2023-07-30T12:20:55;101214.94;;;23.44;51.62
79729;BME280;69218;52.132;5.418;2023-07-30T12:23:22;101204.00;;;23.80;50.01
79729;BME280;69218;52.132;5.418;2023-07-30T12:25:50;101218.97;;;24.23;49.53
79729;BME280;69218;52.132;5.418;2023-07-30T12:28:17;101194.72;;;24.64;48.48
79729;BME280;69218;52.132;5.418;2023-07-30T12:30:43;101199.50;;;24.75;48.75
79729;BME280;69218;52.132;5.418;2023-07-30T12:33:10;101192.66;;;24.99;48.55
79729;BME280;69218;52.132;5.418;2023-07-30T12:35:37;101202.34;;;25.13;44.33
79729;BME280;69218;52.132;5.418;2023-07-30T12:38:03;101195.13;;;24.94;48.00
79729;BME280;69218;52.132;5.418;2023-07-30T12:40:30;101196.16;;;24.66;47.58
79729;BME280;69218;52.132;5.418;2023-07-30T12:43:01;101204.94;;;24.14;46.51
79729;BME280;69218;52.132;5.418;2023-07-30T12:45:30;101208.44;;;24.15;47.86
79729;BME280;69218;52.132;5.418;2023-07-30T12:47:57;101203.19;;;24.48;47.31
79729;BME280;69218;52.132;5.418;2023-07-30T12:50:24;101211.41;;;24.33;49.51
79729;BME280;69218;52.132;5.418;2023-07-30T12:52:50;101204.97;;;24.21;46.95
79729;BME280;69218;52.132;5.418;2023-07-30T12:55:17;101203.97;;;23.74;49.46
79729;BME280;69218;52.132;5.418;2023-07-30T12:57:43;101218.56;;;23.65;50.32
79729;BME280;69218;52.132;5.418;2023-07-30T13:00:10;101220.72;;;23.82;49.93
79729;BME280;69218;52.132;5.418;2023-07-30T13:02:37;101213.16;;;23.99;48.31
79729;BME280;69218;52.132;5.418;2023-07-30T13:05:04;101219.47;;;23.78;51.01